createdAt,value
2022-09-28T00:00:17.006Z,4.77
2022-09-28T00:02:43.636Z,4.27
2022-09-28T00:05:12.654Z,3.43
2022-09-28T00:07:39.296Z,3.43
2022-09-28T00:10:05.772Z,3.67
2022-09-28T00:12:32.279Z,4.13
2022-09-28T00:14:59.092Z,3.30
2022-09-28T00:17:26.495Z,4.57
2022-09-28T00:19:53.112Z,3.40
2022-09-28T00:22:19.657Z,2.83
2022-09-28T00:24:46.489Z,3.30
2022-09-28T00:27:13.096Z,2.90
2022-09-28T00:29:39.579Z,3.07
2022-09-28T00:32:06.136Z,3.13
2022-09-28T00:34:32.735Z,2.80
2022-09-28T00:36:59.235Z,2.83
2022-09-28T00:39:26.947Z,3.03
2022-09-28T00:41:53.465Z,3.13
2022-09-28T00:44:20.025Z,2.57
2022-09-28T00:46:46.540Z,2.50
2022-09-28T00:49:13.128Z,2.37
2022-09-28T00:51:39.700Z,2.47
2022-09-28T00:54:06.193Z,2.00
2022-09-28T00:56:32.774Z,2.67
2022-09-28T00:58:59.584Z,2.50
2022-09-28T01:01:26.153Z,1.83
2022-09-28T01:03:53.562Z,2.40
2022-09-28T01:06:21.164Z,2.20
2022-09-28T01:08:47.705Z,2.27
2022-09-28T01:11:14.230Z,2.40
2022-09-28T01:13:40.737Z,2.10
2022-09-28T01:16:08.146Z,3.00
2022-09-28T01:18:34.704Z,2.57
2022-09-28T01:21:02.240Z,2.50
2022-09-28T01:23:28.825Z,2.10
2022-09-28T01:25:55.466Z,1.73
2022-09-28T01:28:22.108Z,2.50
2022-09-28T01:30:48.662Z,1.93
2022-09-28T01:33:15.497Z,2.60
2022-09-28T01:35:43.275Z,2.50
2022-09-28T01:38:10.294Z,2.70
2022-09-28T01:40:36.866Z,2.43
2022-09-28T01:43:03.442Z,2.43
2022-09-28T01:45:31.167Z,3.03
2022-09-28T01:47:57.724Z,2.67
2022-09-28T01:50:24.290Z,2.57
2022-09-28T01:52:50.783Z,2.90
2022-09-28T01:55:17.255Z,2.37
2022-09-28T01:57:43.913Z,3.00
2022-09-28T02:00:10.724Z,3.33
2022-09-28T02:02:37.288Z,3.27
2022-09-28T02:05:03.798Z,2.77
2022-09-28T02:07:30.352Z,2.80
2022-09-28T02:09:57.767Z,2.90
2022-09-28T02:12:24.284Z,3.40
2022-09-28T02:14:50.775Z,3.63
2022-09-28T02:17:17.285Z,2.90
2022-09-28T02:19:43.924Z,3.10
2022-09-28T02:22:10.460Z,3.10
2022-09-28T02:24:36.944Z,3.00
2022-09-28T02:27:04.081Z,2.80
2022-09-28T02:29:30.563Z,3.80
2022-09-28T02:31:57.126Z,3.87
2022-09-28T02:34:23.714Z,4.30
2022-09-28T02:36:50.199Z,4.20
2022-09-28T02:39:17.741Z,4.70
2022-09-28T02:41:44.394Z,4.93
2022-09-28T02:44:10.985Z,5.57
2022-09-28T02:46:37.551Z,5.70
2022-09-28T02:49:20.888Z,6.07
2022-09-28T02:51:48.122Z,6.90
2022-09-28T02:54:18.685Z,6.13
2022-09-28T02:56:45.661Z,5.90
2022-09-28T02:59:12.176Z,4.73
2022-09-28T03:01:38.824Z,6.70
2022-09-28T03:04:05.345Z,6.50
2022-09-28T03:06:31.862Z,6.30
2022-09-28T03:08:58.432Z,6.13
2022-09-28T03:11:24.936Z,6.33
2022-09-28T03:13:51.722Z,6.87
2022-09-28T03:16:18.333Z,7.10
2022-09-28T03:18:44.883Z,6.77
2022-09-28T03:21:11.713Z,6.50
2022-09-28T03:23:38.248Z,6.53
2022-09-28T03:26:04.755Z,7.33
2022-09-28T03:28:31.299Z,6.57
2022-09-28T03:30:57.868Z,7.97
2022-09-28T03:33:24.401Z,7.30
2022-09-28T03:35:50.948Z,7.40
2022-09-28T03:38:18.139Z,6.43
2022-09-28T03:40:44.737Z,7.10
2022-09-28T03:43:11.318Z,8.10
2022-09-28T03:45:37.899Z,8.73
2022-09-28T03:48:04.539Z,8.40
2022-09-28T03:50:31.106Z,8.63
2022-09-28T03:52:57.637Z,9.07
2022-09-28T03:55:24.131Z,8.60
2022-09-28T03:57:50.654Z,9.10
2022-09-28T04:00:17.180Z,9.60
2022-09-28T04:02:43.688Z,9.80
2022-09-28T04:05:10.264Z,9.10
2022-09-28T04:07:36.824Z,9.00
2022-09-28T04:10:03.352Z,9.10
2022-09-28T04:12:29.940Z,8.17
2022-09-28T04:14:56.471Z,8.00
2022-09-28T04:17:22.998Z,9.07
2022-09-28T04:19:49.495Z,8.43
2022-09-28T04:22:16.168Z,7.50
2022-09-28T04:24:43.538Z,8.33
2022-09-28T04:27:28.948Z,8.70
2022-09-28T04:29:55.444Z,8.27
2022-09-28T04:32:22.019Z,8.90
2022-09-28T04:34:49.771Z,9.90
2022-09-28T04:37:16.287Z,8.57
2022-09-28T04:39:47.477Z,9.40
2022-09-28T04:42:14.876Z,9.00
2022-09-28T04:44:41.392Z,9.77
2022-09-28T04:47:07.964Z,9.97
2022-09-28T04:49:36.929Z,10.30
2022-09-28T04:52:03.459Z,11.40
2022-09-28T04:54:30.033Z,12.10
2022-09-28T04:56:56.638Z,11.27
2022-09-28T04:59:23.272Z,11.47
2022-09-28T05:01:49.875Z,12.30
2022-09-28T05:04:16.831Z,11.90
2022-09-28T05:06:43.440Z,12.60
2022-09-28T05:09:10.144Z,12.03
2022-09-28T05:11:36.792Z,11.87
2022-09-28T05:14:03.307Z,12.20
2022-09-28T05:16:30.936Z,12.30
2022-09-28T05:18:57.525Z,11.73
2022-09-28T05:21:26.295Z,13.20
2022-09-28T05:23:55.920Z,13.00
2022-09-28T05:26:22.419Z,14.80
2022-09-28T05:28:48.919Z,13.10
2022-09-28T05:31:15.498Z,13.03
2022-09-28T05:33:42.045Z,15.13
2022-09-28T05:36:08.565Z,13.20
2022-09-28T05:38:35.044Z,13.43
2022-09-28T05:41:06.302Z,12.40
2022-09-28T05:43:33.212Z,12.90
2022-09-28T05:46:00.320Z,11.90
2022-09-28T05:48:27.543Z,12.40
2022-09-28T05:50:54.100Z,12.60
2022-09-28T05:53:20.588Z,13.07
2022-09-28T05:55:47.089Z,10.93
2022-09-28T05:58:13.617Z,13.77
2022-09-28T06:00:40.112Z,13.47
2022-09-28T06:03:09.000Z,14.00
2022-09-28T06:05:36.172Z,13.00
2022-09-28T06:08:04.221Z,16.10
2022-09-28T06:10:31.124Z,14.00
2022-09-28T06:12:57.613Z,13.90
2022-09-28T06:15:24.142Z,13.60
2022-09-28T06:17:50.904Z,15.53
2022-09-28T06:20:17.412Z,16.83
2022-09-28T06:22:43.964Z,15.60
2022-09-28T06:25:10.500Z,16.10
2022-09-28T06:27:37.613Z,15.33
2022-09-28T06:30:04.087Z,15.13
2022-09-28T06:32:30.662Z,16.63
2022-09-28T06:34:57.192Z,17.70
2022-09-28T06:37:25.882Z,18.30
2022-09-28T06:39:52.369Z,16.40
2022-09-28T06:42:19.278Z,16.27
2022-09-28T06:44:46.977Z,15.50
2022-09-28T06:47:14.520Z,17.03
2022-09-28T06:49:41.051Z,15.73
2022-09-28T06:52:07.585Z,16.20
2022-09-28T06:54:34.073Z,18.07
2022-09-28T06:57:00.604Z,15.47
2022-09-28T06:59:27.118Z,18.93
2022-09-28T07:01:53.774Z,15.57
2022-09-28T07:04:20.272Z,16.20
2022-09-28T07:06:47.250Z,15.93
2022-09-28T07:09:29.841Z,15.07
2022-09-28T07:11:58.637Z,16.30
2022-09-28T07:14:46.288Z,16.07
2022-09-28T07:17:14.282Z,14.10
2022-09-28T07:19:41.208Z,14.53
2022-09-28T07:22:07.939Z,13.67
2022-09-28T07:24:34.482Z,13.50
2022-09-28T07:27:01.815Z,13.20
2022-09-28T07:29:28.288Z,14.67
2022-09-28T07:31:54.819Z,13.80
2022-09-28T07:34:23.065Z,14.90
2022-09-28T07:36:49.561Z,15.40
2022-09-28T07:39:16.045Z,16.80
2022-09-28T07:41:43.832Z,15.70
2022-09-28T07:44:10.341Z,15.20
2022-09-28T07:46:37.059Z,13.87
2022-09-28T07:49:09.801Z,14.67
2022-09-28T07:51:38.887Z,13.50
2022-09-28T07:54:06.400Z,13.90
2022-09-28T07:56:34.005Z,13.07
2022-09-28T07:59:00.655Z,12.07
2022-09-28T08:01:27.200Z,14.13
2022-09-28T08:03:56.152Z,12.40
2022-09-28T08:06:23.173Z,11.87
2022-09-28T08:08:50.264Z,12.50
2022-09-28T08:11:17.650Z,11.70
2022-09-28T08:13:45.478Z,12.37
2022-09-28T08:16:12.169Z,13.17
2022-09-28T08:18:38.728Z,12.33
2022-09-28T08:21:23.742Z,13.63
2022-09-28T08:23:50.287Z,14.50
2022-09-28T08:26:16.772Z,13.97
2022-09-28T08:28:43.392Z,14.23
2022-09-28T08:31:10.023Z,12.07
2022-09-28T08:33:36.560Z,12.57
2022-09-28T08:36:04.315Z,13.33
2022-09-28T08:38:30.958Z,14.80
2022-09-28T08:40:57.880Z,12.80
2022-09-28T08:43:24.402Z,13.33
2022-09-28T08:45:51.112Z,12.73
2022-09-28T08:48:36.316Z,13.77
2022-09-28T08:51:02.884Z,14.20
2022-09-28T08:53:29.355Z,14.00
2022-09-28T08:55:55.887Z,13.20
2022-09-28T08:58:22.403Z,14.07
2022-09-28T09:00:49.015Z,12.97
2022-09-28T09:03:15.576Z,13.40
2022-09-28T09:05:42.105Z,12.53
2022-09-28T09:08:08.715Z,12.97
2022-09-28T09:10:36.198Z,15.37
2022-09-28T09:13:03.332Z,13.20
2022-09-28T09:15:29.975Z,14.90
2022-09-28T09:17:56.460Z,13.67
2022-09-28T09:20:23.146Z,16.20
2022-09-28T09:22:49.686Z,14.80
2022-09-28T09:25:18.016Z,15.70
2022-09-28T09:27:44.533Z,17.97
2022-09-28T09:30:11.818Z,16.43
2022-09-28T09:32:38.358Z,16.83
2022-09-28T09:35:05.532Z,18.77
2022-09-28T09:37:35.121Z,17.00
2022-09-28T09:40:01.602Z,17.00
2022-09-28T09:42:29.574Z,17.60
2022-09-28T09:44:56.951Z,16.90
2022-09-28T09:47:23.508Z,17.60
2022-09-28T09:49:50.012Z,18.37
2022-09-28T09:52:16.567Z,17.53
2022-09-28T09:54:43.156Z,18.83
2022-09-28T09:57:09.654Z,17.13
2022-09-28T09:59:36.244Z,18.20
2022-09-28T10:02:02.839Z,19.67
2022-09-28T10:04:29.420Z,19.63
2022-09-28T10:06:55.943Z,17.47
2022-09-28T10:09:22.481Z,16.40
2022-09-28T10:11:50.182Z,15.63
2022-09-28T10:14:17.200Z,12.40
2022-09-28T10:16:43.742Z,14.17
2022-09-28T10:19:10.661Z,14.67
2022-09-28T10:21:38.398Z,13.17
2022-09-28T10:24:04.965Z,13.70
2022-09-28T10:26:31.505Z,14.40
2022-09-28T10:28:58.195Z,14.57
2022-09-28T10:31:25.131Z,16.30
2022-09-28T10:33:51.631Z,14.07
2022-09-28T10:36:18.184Z,13.20
2022-09-28T10:38:44.957Z,12.97
2022-09-28T10:41:11.428Z,14.50
2022-09-28T10:43:38.426Z,14.40
2022-09-28T10:46:05.363Z,13.60
2022-09-28T10:48:31.972Z,13.20
2022-09-28T10:50:58.462Z,13.80
2022-09-28T10:53:24.966Z,13.30
2022-09-28T10:55:51.496Z,13.97
2022-09-28T10:58:17.982Z,13.20
2022-09-28T11:00:44.540Z,13.40
2022-09-28T11:03:11.056Z,14.13
2022-09-28T11:05:38.657Z,14.10
2022-09-28T11:08:05.541Z,14.10
2022-09-28T11:10:32.935Z,14.17
2022-09-28T11:12:59.563Z,12.40
2022-09-28T11:15:26.109Z,12.97
2022-09-28T11:17:52.629Z,10.83
2022-09-28T11:20:21.501Z,10.50
2022-09-28T11:22:53.618Z,10.33
2022-09-28T11:25:21.095Z,10.77
2022-09-28T11:27:47.602Z,9.77
2022-09-28T11:30:14.078Z,9.80
2022-09-28T11:32:40.591Z,9.80
2022-09-28T11:35:07.052Z,8.67
2022-09-28T11:37:33.612Z,11.20
2022-09-28T11:40:00.139Z,10.30
2022-09-28T11:42:26.645Z,10.30
2022-09-28T11:44:53.125Z,11.77
2022-09-28T11:47:20.321Z,12.20
2022-09-28T11:49:46.827Z,10.87
2022-09-28T11:52:13.340Z,10.33
2022-09-28T11:54:39.815Z,10.60
2022-09-28T11:57:06.347Z,11.33
2022-09-28T11:59:32.861Z,11.07
2022-09-28T12:01:59.430Z,10.93
2022-09-28T12:04:26.016Z,10.93
2022-09-28T12:06:52.558Z,11.90
2022-09-28T12:09:19.761Z,10.63
2022-09-28T12:11:46.583Z,11.87
2022-09-28T12:14:13.105Z,10.73
2022-09-28T12:17:04.050Z,10.60
2022-09-28T12:19:26.214Z,11.30
2022-09-28T12:21:52.713Z,9.67
2022-09-28T12:24:19.268Z,11.17
2022-09-28T12:26:45.795Z,10.93
2022-09-28T12:29:12.354Z,9.80
2022-09-28T12:31:38.920Z,10.33
2022-09-28T12:34:05.371Z,11.80
2022-09-28T12:36:32.452Z,9.37
2022-09-28T12:39:21.670Z,11.37
2022-09-28T12:41:47.776Z,10.40
2022-09-28T12:44:14.409Z,10.33
2022-09-28T12:46:40.993Z,10.60
2022-09-28T12:51:54.050Z,11.07
2022-09-28T12:54:20.526Z,11.53
2022-09-28T12:56:47.056Z,10.63
2022-09-28T12:59:13.560Z,13.57
2022-09-28T13:01:40.221Z,10.43
2022-09-28T13:04:09.236Z,12.70
2022-09-28T13:06:39.198Z,16.30
2022-09-28T13:09:05.724Z,11.10
2022-09-28T13:11:33.109Z,11.07
2022-09-28T13:14:01.700Z,10.33
2022-09-28T13:16:28.199Z,10.07
2022-09-28T13:18:54.717Z,9.83
2022-09-28T13:21:21.271Z,8.60
2022-09-28T13:23:47.763Z,8.90
2022-09-28T13:26:14.371Z,8.30
2022-09-28T13:28:40.866Z,8.40
2022-09-28T13:31:07.390Z,7.80
2022-09-28T13:33:35.645Z,8.00
2022-09-28T13:36:03.334Z,10.10
2022-09-28T13:38:29.849Z,7.47
2022-09-28T13:40:56.444Z,5.97
2022-09-28T13:43:22.967Z,6.30
2022-09-28T13:45:49.523Z,7.10
2022-09-28T13:48:16.115Z,6.37
2022-09-28T13:50:42.598Z,7.60
2022-09-28T13:53:09.122Z,7.20
2022-09-28T13:55:36.098Z,6.30
2022-09-28T13:58:04.490Z,6.70
2022-09-28T14:00:30.977Z,8.77
2022-09-28T14:03:00.576Z,6.90
2022-09-28T14:05:27.174Z,6.20
2022-09-28T14:07:57.155Z,8.10
2022-09-28T14:10:25.704Z,7.17
2022-09-28T14:12:52.316Z,7.70
2022-09-28T14:15:18.798Z,6.97
2022-09-28T14:17:45.383Z,7.43
2022-09-28T14:20:11.856Z,7.53
2022-09-28T14:22:38.491Z,7.50
2022-09-28T14:25:05.172Z,8.00
2022-09-28T14:27:32.504Z,11.40
2022-09-28T14:29:58.969Z,9.97
2022-09-28T14:32:25.524Z,10.67
2022-09-28T14:34:52.054Z,9.53
2022-09-28T14:37:37.523Z,10.50
2022-09-28T14:40:22.769Z,9.30
2022-09-28T14:42:49.433Z,10.90
2022-09-28T14:45:15.968Z,9.20
2022-09-28T14:47:42.497Z,8.50
2022-09-28T14:50:13.957Z,7.60
2022-09-28T14:52:41.178Z,6.70
2022-09-28T14:55:08.232Z,6.50
2022-09-28T14:57:34.787Z,6.73
2022-09-28T15:00:01.336Z,6.47
2022-09-28T15:02:27.820Z,6.10
2022-09-28T15:04:54.603Z,7.10
2022-09-28T15:07:21.356Z,6.10
2022-09-28T15:09:47.901Z,5.63
2022-09-28T15:12:14.381Z,5.70
2022-09-28T15:14:40.869Z,6.63
2022-09-28T15:17:07.464Z,5.93
2022-09-28T15:19:33.987Z,4.87
2022-09-28T15:22:00.612Z,5.10
2022-09-28T15:24:27.124Z,4.30
2022-09-28T15:26:53.630Z,4.83
2022-09-28T15:29:20.133Z,4.53
2022-09-28T15:31:49.955Z,5.03
2022-09-28T15:34:37.397Z,4.10
2022-09-28T15:37:08.972Z,4.90
2022-09-28T15:39:35.479Z,4.80
2022-09-28T15:42:02.458Z,3.70
2022-09-28T15:44:29.280Z,4.10
2022-09-28T15:46:56.201Z,5.03
2022-09-28T15:49:22.886Z,5.27
2022-09-28T15:51:49.351Z,5.47
2022-09-28T15:54:19.632Z,5.57
2022-09-28T15:56:46.364Z,4.30
2022-09-28T15:59:12.853Z,5.50
2022-09-28T16:01:39.665Z,5.17
2022-09-28T16:04:06.226Z,4.00
2022-09-28T16:06:32.725Z,4.67
2022-09-28T16:08:59.303Z,37.23
2022-09-28T16:11:28.895Z,10.03
2022-09-28T16:13:56.191Z,19.03
2022-09-28T16:16:22.738Z,6.70
2022-09-28T16:18:49.354Z,14.47
2022-09-28T16:21:15.885Z,18.20
2022-09-28T16:23:42.651Z,13.20
2022-09-28T16:26:09.143Z,52.17
2022-09-28T16:28:35.621Z,23.60
2022-09-28T16:31:02.239Z,10.83
2022-09-28T16:33:28.988Z,17.43
2022-09-28T16:35:55.447Z,13.30
2022-09-28T16:38:21.935Z,11.53
2022-09-28T16:40:53.515Z,8.53
2022-09-28T16:43:20.180Z,6.70
2022-09-28T16:45:46.645Z,12.37
2022-09-28T16:48:13.142Z,9.50
2022-09-28T16:50:39.647Z,6.30
2022-09-28T16:53:25.034Z,6.93
2022-09-28T16:55:51.543Z,5.77
2022-09-28T16:58:18.688Z,13.23
2022-09-28T17:00:45.627Z,9.00
2022-09-28T17:03:12.294Z,11.30
2022-09-28T17:05:40.059Z,8.60
2022-09-28T17:08:06.598Z,7.10
2022-09-28T17:10:41.202Z,7.10
2022-09-28T17:13:19.734Z,7.20
2022-09-28T17:15:48.094Z,7.70
2022-09-28T17:18:14.787Z,5.90
2022-09-28T17:20:41.883Z,5.40
2022-09-28T17:23:08.472Z,4.47
2022-09-28T17:25:34.970Z,9.90
2022-09-28T17:28:01.449Z,8.10
2022-09-28T17:30:27.991Z,10.73
2022-09-28T17:32:54.543Z,11.23
2022-09-28T17:35:25.453Z,8.97
2022-09-28T17:37:52.184Z,6.57
2022-09-28T17:40:18.795Z,5.33
2022-09-28T17:42:46.895Z,8.90
2022-09-28T17:45:13.553Z,6.03
2022-09-28T17:47:40.091Z,8.43
2022-09-28T17:50:06.584Z,7.90
2022-09-28T17:52:33.052Z,7.37
2022-09-28T17:54:59.604Z,10.37
2022-09-28T17:57:26.690Z,8.67
2022-09-28T17:59:53.192Z,6.13
2022-09-28T18:02:19.705Z,7.30
2022-09-28T18:04:52.125Z,7.60
2022-09-28T18:07:19.047Z,7.00
2022-09-28T18:09:45.683Z,4.67
2022-09-28T18:12:12.258Z,5.30
2022-09-28T18:14:39.907Z,3.80
2022-09-28T18:17:06.397Z,2.63
2022-09-28T18:19:32.956Z,3.10
2022-09-28T18:21:59.521Z,2.53
2022-09-28T18:24:26.004Z,2.97
2022-09-28T18:26:52.501Z,3.23
2022-09-28T18:29:19.001Z,3.70
2022-09-28T18:31:45.541Z,3.13
2022-09-28T18:34:13.489Z,2.43
2022-09-28T18:36:40.027Z,1.93
2022-09-28T18:39:06.519Z,1.83
2022-09-28T18:41:33.028Z,2.10
2022-09-28T18:44:02.542Z,1.43
2022-09-28T18:46:29.082Z,2.97
2022-09-28T18:48:55.687Z,3.50
2022-09-28T18:51:22.155Z,3.67
2022-09-28T18:53:48.713Z,3.20
2022-09-28T18:56:15.900Z,3.63
2022-09-28T18:58:42.411Z,4.77
2022-09-28T19:01:28.895Z,4.50
2022-09-28T19:03:55.839Z,3.90
2022-09-28T19:06:22.396Z,3.37
2022-09-28T19:08:49.091Z,3.27
2022-09-28T19:11:15.591Z,3.30
2022-09-28T19:13:42.118Z,3.23
2022-09-28T19:16:08.795Z,3.70
2022-09-28T19:18:35.933Z,3.13
2022-09-28T19:21:02.409Z,5.23
2022-09-28T19:23:28.895Z,3.80
2022-09-28T19:25:55.395Z,2.03
2022-09-28T19:28:21.908Z,1.90
2022-09-28T19:30:48.528Z,2.30
2022-09-28T19:33:17.463Z,1.77
2022-09-28T19:35:43.975Z,6.10
2022-09-28T19:38:10.455Z,3.80
2022-09-28T19:40:36.980Z,2.77
2022-09-28T19:43:05.012Z,3.03
2022-09-28T19:45:31.513Z,2.93
2022-09-28T19:47:59.557Z,3.27
2022-09-28T19:50:26.190Z,3.37
2022-09-28T19:52:53.214Z,3.53
2022-09-28T19:55:21.101Z,3.70
2022-09-28T19:57:47.932Z,3.20
2022-09-28T20:00:14.468Z,2.70
2022-09-28T20:02:41.145Z,4.13
2022-09-28T20:05:07.699Z,4.33
2022-09-28T20:07:36.006Z,4.37
2022-09-28T20:10:02.488Z,3.40
2022-09-28T20:12:28.991Z,3.60
2022-09-28T20:14:55.469Z,3.60
2022-09-28T20:17:21.980Z,3.17
2022-09-28T20:19:50.973Z,3.57
2022-09-28T20:22:18.523Z,3.60
2022-09-28T20:24:45.110Z,3.50
2022-09-28T20:27:11.607Z,3.80
2022-09-28T20:29:38.064Z,4.10
2022-09-28T20:32:04.563Z,4.43
2022-09-28T20:34:31.038Z,3.50
2022-09-28T20:36:57.548Z,4.30
2022-09-28T20:39:24.056Z,4.03
2022-09-28T20:41:50.553Z,4.57
2022-09-28T20:44:17.157Z,3.33
2022-09-28T20:46:44.135Z,3.77
2022-09-28T20:49:10.912Z,3.73
2022-09-28T20:51:37.431Z,3.97
2022-09-28T20:54:03.944Z,3.83
2022-09-28T20:56:31.001Z,3.77
2022-09-28T20:58:57.624Z,4.27
2022-09-28T21:01:24.220Z,4.13
2022-09-28T21:03:50.824Z,3.70
2022-09-28T21:06:17.370Z,4.10
2022-09-28T21:08:44.252Z,4.60
2022-09-28T21:11:10.806Z,4.73
2022-09-28T21:13:38.151Z,5.90
2022-09-28T21:16:04.742Z,4.70
2022-09-28T21:18:31.279Z,4.83
2022-09-28T21:20:57.836Z,5.50
2022-09-28T21:23:25.137Z,4.23
2022-09-28T21:25:51.825Z,4.90
2022-09-28T21:28:18.298Z,4.50
2022-09-28T21:30:44.777Z,5.27
2022-09-28T21:33:11.345Z,4.70
2022-09-28T21:35:39.283Z,4.43
2022-09-28T21:38:05.789Z,4.43
2022-09-28T21:40:32.391Z,4.20
2022-09-28T21:42:58.992Z,4.40
2022-09-28T21:45:25.530Z,4.27
2022-09-28T21:47:55.173Z,4.13
2022-09-28T21:50:22.644Z,4.00
2022-09-28T21:52:49.164Z,4.40
2022-09-28T21:55:15.712Z,4.17
2022-09-28T21:57:42.735Z,4.17
2022-09-28T22:00:09.254Z,4.10
2022-09-28T22:02:36.295Z,3.83
2022-09-28T22:05:02.950Z,3.30
2022-09-28T22:07:29.432Z,3.43
2022-09-28T22:09:55.951Z,4.60
2022-09-28T22:12:22.419Z,3.07
2022-09-28T22:14:48.938Z,3.80
2022-09-28T22:17:15.425Z,3.00
2022-09-28T22:19:41.916Z,3.10
2022-09-28T22:22:08.449Z,3.30
2022-09-28T22:24:34.941Z,3.27
2022-09-28T22:27:01.422Z,3.97
2022-09-28T22:29:27.896Z,3.40
2022-09-28T22:32:00.118Z,3.50
2022-09-28T22:34:29.183Z,3.37
2022-09-28T22:36:55.657Z,3.87
2022-09-28T22:39:22.133Z,3.50
2022-09-28T22:41:48.982Z,3.83
2022-09-28T22:44:15.457Z,3.03
2022-09-28T22:46:42.028Z,3.67
2022-09-28T22:49:08.931Z,3.17
2022-09-28T22:51:35.431Z,3.73
2022-09-28T22:54:01.944Z,3.83
2022-09-28T22:56:28.444Z,3.40
2022-09-28T22:58:55.149Z,3.80
2022-09-28T23:01:21.740Z,3.70
2022-09-28T23:03:48.285Z,4.17
2022-09-28T23:06:15.966Z,3.80
2022-09-28T23:08:42.474Z,3.70
2022-09-28T23:11:09.002Z,3.70
2022-09-28T23:13:35.516Z,3.97
2022-09-28T23:16:02.136Z,3.73
2022-09-28T23:18:28.738Z,4.13
2022-09-28T23:20:55.216Z,4.23
2022-09-28T23:23:21.760Z,4.07
2022-09-28T23:25:48.287Z,3.90
2022-09-28T23:28:15.104Z,3.43
2022-09-28T23:30:41.584Z,4.10
2022-09-28T23:33:08.191Z,3.60
2022-09-28T23:35:34.706Z,3.80
2022-09-28T23:38:01.203Z,3.97
2022-09-28T23:40:27.728Z,3.63
2022-09-28T23:42:54.291Z,3.57
2022-09-28T23:45:20.751Z,3.97
2022-09-28T23:47:47.258Z,3.97
2022-09-28T23:50:13.756Z,4.10
2022-09-28T23:52:40.253Z,3.33
2022-09-28T23:55:06.908Z,3.20
2022-09-28T23:57:33.442Z,3.33
2022-09-28T23:59:59.969Z,3.97
